sensor_id;sensor_type;location;lat;lon;timestamp;P1;durP1;ratioP1;P2;durP2;ratioP2
10641;SDS011;5369;49.586;8.646;2022-08-25T00:00:32;3.90;;;3.50;;
10641;SDS011;5369;49.586;8.646;2022-08-25T00:02:58;3.90;;;3.60;;
10641;SDS011;5369;49.586;8.646;2022-08-25T00:05:28;5.30;;;3.73;;
10641;SDS011;5369;49.586;8.646;2022-08-25T00:07:55;4.00;;;3.60;;
10641;SDS011;5369;49.586;8.646;2022-08-25T00:10:22;4.17;;;3.73;;
10641;SDS011;5369;49.586;8.646;2022-08-25T00:12:48;4.40;;;4.00;;
10641;SDS011;5369;49.586;8.646;2022-08-25T00:15:15;5.17;;;4.00;;
10641;SDS011;5369;49.586;8.646;2022-08-25T00:17:41;4.17;;;3.60;;
10641;SDS011;5369;49.586;8.646;2022-08-25T00:20:07;4.70;;;4.00;;
10641;SDS011;5369;49.586;8.646;2022-08-25T00:22:34;5.33;;;3.87;;
10641;SDS011;5369;49.586;8.646;2022-08-25T00:25:00;3.70;;;3.40;;
10641;SDS011;5369;49.586;8.646;2022-08-25T00:27:26;4.60;;;4.00;;
10641;SDS011;5369;49.586;8.646;2022-08-25T00:29:52;4.30;;;3.90;;
10641;SDS011;5369;49.586;8.646;2022-08-25T00:32:18;4.10;;;3.80;;
10641;SDS011;5369;49.586;8.646;2022-08-25T00:34:45;5.27;;;4.00;;
10641;SDS011;5369;49.586;8.646;2022-08-25T00:37:11;4.90;;;4.43;;
10641;SDS011;5369;49.586;8.646;2022-08-25T00:39:38;4.33;;;3.93;;
10641;SDS011;5369;49.586;8.646;2022-08-25T00:42:04;4.20;;;3.80;;
10641;SDS011;5369;49.586;8.646;2022-08-25T00:44:31;4.40;;;4.00;;
10641;SDS011;5369;49.586;8.646;2022-08-25T00:46:59;4.77;;;4.37;;
10641;SDS011;5369;49.586;8.646;2022-08-25T00:51:58;4.93;;;4.20;;
10641;SDS011;5369;49.586;8.646;2022-08-25T00:54:32;5.03;;;4.20;;
10641;SDS011;5369;49.586;8.646;2022-08-25T00:56:59;5.10;;;4.13;;
10641;SDS011;5369;49.586;8.646;2022-08-25T00:59:26;4.83;;;4.37;;
10641;SDS011;5369;49.586;8.646;2022-08-25T01:01:52;5.13;;;4.63;;
10641;SDS011;5369;49.586;8.646;2022-08-25T01:04:19;4.90;;;4.50;;
10641;SDS011;5369;49.586;8.646;2022-08-25T01:06:45;5.53;;;4.50;;
10641;SDS011;5369;49.586;8.646;2022-08-25T01:09:13;5.97;;;5.07;;
10641;SDS011;5369;49.586;8.646;2022-08-25T01:11:40;5.43;;;4.27;;
10641;SDS011;5369;49.586;8.646;2022-08-25T01:14:06;5.00;;;4.50;;
10641;SDS011;5369;49.586;8.646;2022-08-25T01:16:34;4.93;;;4.43;;
10641;SDS011;5369;49.586;8.646;2022-08-25T01:19:01;4.70;;;4.27;;
10641;SDS011;5369;49.586;8.646;2022-08-25T01:21:28;4.67;;;4.10;;
10641;SDS011;5369;49.586;8.646;2022-08-25T01:23:56;5.07;;;4.30;;
10641;SDS011;5369;49.586;8.646;2022-08-25T01:26:27;4.67;;;4.23;;
10641;SDS011;5369;49.586;8.646;2022-08-25T01:28:54;4.50;;;4.10;;
10641;SDS011;5369;49.586;8.646;2022-08-25T01:31:40;4.40;;;4.00;;
10641;SDS011;5369;49.586;8.646;2022-08-25T01:34:06;4.80;;;4.40;;
10641;SDS011;5369;49.586;8.646;2022-08-25T01:36:33;5.00;;;4.33;;
10641;SDS011;5369;49.586;8.646;2022-08-25T01:39:00;4.77;;;4.30;;
10641;SDS011;5369;49.586;8.646;2022-08-25T01:43:59;4.20;;;3.80;;
10641;SDS011;5369;49.586;8.646;2022-08-25T01:46:25;4.60;;;4.20;;
10641;SDS011;5369;49.586;8.646;2022-08-25T01:48:52;4.47;;;4.07;;
10641;SDS011;5369;49.586;8.646;2022-08-25T01:51:19;5.43;;;4.40;;
10641;SDS011;5369;49.586;8.646;2022-08-25T01:53:46;4.57;;;4.17;;
10641;SDS011;5369;49.586;8.646;2022-08-25T01:56:14;6.03;;;4.10;;
10641;SDS011;5369;49.586;8.646;2022-08-25T01:58:41;4.80;;;4.40;;
10641;SDS011;5369;49.586;8.646;2022-08-25T02:01:11;4.17;;;3.77;;
10641;SDS011;5369;49.586;8.646;2022-08-25T02:03:40;4.67;;;4.20;;
10641;SDS011;5369;49.586;8.646;2022-08-25T02:06:07;4.87;;;4.37;;
10641;SDS011;5369;49.586;8.646;2022-08-25T02:08:33;4.97;;;4.47;;
10641;SDS011;5369;49.586;8.646;2022-08-25T02:10:59;5.87;;;4.30;;
10641;SDS011;5369;49.586;8.646;2022-08-25T02:13:25;4.97;;;4.57;;
10641;SDS011;5369;49.586;8.646;2022-08-25T02:15:52;5.20;;;4.30;;
10641;SDS011;5369;49.586;8.646;2022-08-25T02:18:20;5.00;;;4.50;;
10641;SDS011;5369;49.586;8.646;2022-08-25T02:20:47;5.67;;;4.80;;
10641;SDS011;5369;49.586;8.646;2022-08-25T02:23:13;4.70;;;4.30;;
10641;SDS011;5369;49.586;8.646;2022-08-25T02:25:42;4.83;;;4.40;;
10641;SDS011;5369;49.586;8.646;2022-08-25T02:28:09;4.97;;;4.57;;
10641;SDS011;5369;49.586;8.646;2022-08-25T02:30:36;4.77;;;4.27;;
10641;SDS011;5369;49.586;8.646;2022-08-25T02:33:02;7.60;;;4.90;;
10641;SDS011;5369;49.586;8.646;2022-08-25T02:35:29;4.80;;;4.40;;
10641;SDS011;5369;49.586;8.646;2022-08-25T02:37:55;4.87;;;4.47;;
10641;SDS011;5369;49.586;8.646;2022-08-25T02:40:21;4.80;;;4.40;;
10641;SDS011;5369;49.586;8.646;2022-08-25T02:42:47;5.20;;;4.10;;
10641;SDS011;5369;49.586;8.646;2022-08-25T02:45:14;4.87;;;4.47;;
10641;SDS011;5369;49.586;8.646;2022-08-25T02:47:40;5.23;;;4.57;;
10641;SDS011;5369;49.586;8.646;2022-08-25T02:50:07;5.53;;;4.53;;
10641;SDS011;5369;49.586;8.646;2022-08-25T02:52:34;5.17;;;4.67;;
10641;SDS011;5369;49.586;8.646;2022-08-25T02:55:01;5.50;;;5.00;;
10641;SDS011;5369;49.586;8.646;2022-08-25T02:57:29;5.90;;;5.00;;
10641;SDS011;5369;49.586;8.646;2022-08-25T02:59:55;5.43;;;4.70;;
10641;SDS011;5369;49.586;8.646;2022-08-25T03:02:23;5.60;;;5.00;;
10641;SDS011;5369;49.586;8.646;2022-08-25T03:04:50;4.70;;;4.30;;
10641;SDS011;5369;49.586;8.646;2022-08-25T03:07:16;5.23;;;4.83;;
10641;SDS011;5369;49.586;8.646;2022-08-25T03:09:43;5.63;;;5.13;;
10641;SDS011;5369;49.586;8.646;2022-08-25T03:12:09;5.67;;;5.03;;
10641;SDS011;5369;49.586;8.646;2022-08-25T03:14:37;5.23;;;4.73;;
10641;SDS011;5369;49.586;8.646;2022-08-25T03:17:04;5.37;;;4.93;;
10641;SDS011;5369;49.586;8.646;2022-08-25T03:19:30;5.60;;;5.10;;
10641;SDS011;5369;49.586;8.646;2022-08-25T03:22:00;5.50;;;4.97;;
10641;SDS011;5369;49.586;8.646;2022-08-25T03:24:26;5.97;;;5.03;;
10641;SDS011;5369;49.586;8.646;2022-08-25T03:26:52;5.87;;;5.33;;
10641;SDS011;5369;49.586;8.646;2022-08-25T03:29:20;6.10;;;5.53;;
10641;SDS011;5369;49.586;8.646;2022-08-25T03:31:46;5.80;;;5.30;;
10641;SDS011;5369;49.586;8.646;2022-08-25T03:34:14;6.37;;;5.30;;
10641;SDS011;5369;49.586;8.646;2022-08-25T03:36:44;6.00;;;5.40;;
10641;SDS011;5369;49.586;8.646;2022-08-25T03:39:11;5.50;;;5.00;;
10641;SDS011;5369;49.586;8.646;2022-08-25T03:41:37;5.83;;;5.20;;
10641;SDS011;5369;49.586;8.646;2022-08-25T03:44:04;7.20;;;5.37;;
10641;SDS011;5369;49.586;8.646;2022-08-25T03:46:32;5.40;;;4.90;;
10641;SDS011;5369;49.586;8.646;2022-08-25T03:49:00;6.10;;;5.50;;
10641;SDS011;5369;49.586;8.646;2022-08-25T03:51:31;5.80;;;5.30;;
10641;SDS011;5369;49.586;8.646;2022-08-25T03:53:58;5.97;;;5.37;;
10641;SDS011;5369;49.586;8.646;2022-08-25T03:56:25;5.73;;;5.20;;
10641;SDS011;5369;49.586;8.646;2022-08-25T03:58:52;7.70;;;5.67;;
10641;SDS011;5369;49.586;8.646;2022-08-25T04:01:18;6.50;;;5.60;;
10641;SDS011;5369;49.586;8.646;2022-08-25T04:03:44;6.03;;;5.43;;
10641;SDS011;5369;49.586;8.646;2022-08-25T04:06:11;6.17;;;5.63;;
10641;SDS011;5369;49.586;8.646;2022-08-25T04:08:38;5.33;;;4.80;;
10641;SDS011;5369;49.586;8.646;2022-08-25T04:11:05;6.33;;;5.70;;
10641;SDS011;5369;49.586;8.646;2022-08-25T04:13:31;8.23;;;6.00;;
10641;SDS011;5369;49.586;8.646;2022-08-25T04:15:58;5.27;;;4.77;;
10641;SDS011;5369;49.586;8.646;2022-08-25T04:18:24;7.47;;;5.47;;
10641;SDS011;5369;49.586;8.646;2022-08-25T04:20:50;6.50;;;5.90;;
10641;SDS011;5369;49.586;8.646;2022-08-25T04:23:26;6.67;;;5.67;;
10641;SDS011;5369;49.586;8.646;2022-08-25T04:25:52;6.10;;;5.40;;
10641;SDS011;5369;49.586;8.646;2022-08-25T04:28:18;6.50;;;5.90;;
10641;SDS011;5369;49.586;8.646;2022-08-25T04:30:44;5.97;;;5.47;;
10641;SDS011;5369;49.586;8.646;2022-08-25T04:33:10;5.10;;;4.70;;
10641;SDS011;5369;49.586;8.646;2022-08-25T04:35:37;6.17;;;5.57;;
10641;SDS011;5369;49.586;8.646;2022-08-25T04:38:05;5.93;;;5.37;;
10641;SDS011;5369;49.586;8.646;2022-08-25T04:40:31;6.10;;;5.50;;
10641;SDS011;5369;49.586;8.646;2022-08-25T04:42:58;6.50;;;5.73;;
10641;SDS011;5369;49.586;8.646;2022-08-25T04:45:24;6.17;;;5.57;;
10641;SDS011;5369;49.586;8.646;2022-08-25T04:47:50;6.33;;;5.73;;
10641;SDS011;5369;49.586;8.646;2022-08-25T04:50:16;6.50;;;5.90;;
10641;SDS011;5369;49.586;8.646;2022-08-25T04:52:42;6.50;;;5.90;;
10641;SDS011;5369;49.586;8.646;2022-08-25T04:55:08;7.83;;;5.93;;
10641;SDS011;5369;49.586;8.646;2022-08-25T04:57:34;6.23;;;5.73;;
10641;SDS011;5369;49.586;8.646;2022-08-25T05:00:02;7.07;;;6.17;;
10641;SDS011;5369;49.586;8.646;2022-08-25T05:02:28;7.30;;;5.67;;
10641;SDS011;5369;49.586;8.646;2022-08-25T05:04:55;7.63;;;6.10;;
10641;SDS011;5369;49.586;8.646;2022-08-25T05:07:21;6.73;;;6.13;;
10641;SDS011;5369;49.586;8.646;2022-08-25T05:09:47;6.60;;;5.90;;
10641;SDS011;5369;49.586;8.646;2022-08-25T05:12:13;7.83;;;6.77;;
10641;SDS011;5369;49.586;8.646;2022-08-25T05:14:40;6.50;;;5.90;;
10641;SDS011;5369;49.586;8.646;2022-08-25T05:17:06;7.10;;;5.90;;
10641;SDS011;5369;49.586;8.646;2022-08-25T05:19:32;6.50;;;5.53;;
10641;SDS011;5369;49.586;8.646;2022-08-25T05:22:00;6.70;;;5.47;;
10641;SDS011;5369;49.586;8.646;2022-08-25T05:24:26;6.17;;;5.30;;
10641;SDS011;5369;49.586;8.646;2022-08-25T05:26:53;6.80;;;6.10;;
10641;SDS011;5369;49.586;8.646;2022-08-25T05:29:20;6.10;;;5.50;;
10641;SDS011;5369;49.586;8.646;2022-08-25T05:31:46;7.63;;;5.87;;
10641;SDS011;5369;49.586;8.646;2022-08-25T05:34:13;7.30;;;6.27;;
10641;SDS011;5369;49.586;8.646;2022-08-25T05:36:39;7.07;;;6.37;;
10641;SDS011;5369;49.586;8.646;2022-08-25T05:39:07;6.37;;;5.77;;
10641;SDS011;5369;49.586;8.646;2022-08-25T05:41:34;6.43;;;5.83;;
10641;SDS011;5369;49.586;8.646;2022-08-25T05:44:01;8.60;;;6.20;;
10641;SDS011;5369;49.586;8.646;2022-08-25T05:46:27;6.23;;;5.63;;
10641;SDS011;5369;49.586;8.646;2022-08-25T05:48:53;6.90;;;6.20;;
10641;SDS011;5369;49.586;8.646;2022-08-25T05:51:19;6.67;;;6.07;;
10641;SDS011;5369;49.586;8.646;2022-08-25T05:53:47;7.40;;;6.63;;
10641;SDS011;5369;49.586;8.646;2022-08-25T05:56:14;7.33;;;6.63;;
10641;SDS011;5369;49.586;8.646;2022-08-25T05:58:40;7.37;;;6.00;;
10641;SDS011;5369;49.586;8.646;2022-08-25T06:01:07;7.53;;;6.10;;
10641;SDS011;5369;49.586;8.646;2022-08-25T06:03:52;7.03;;;6.33;;
10641;SDS011;5369;49.586;8.646;2022-08-25T06:06:20;6.93;;;6.30;;
10641;SDS011;5369;49.586;8.646;2022-08-25T06:08:46;6.40;;;5.80;;
10641;SDS011;5369;49.586;8.646;2022-08-25T06:11:13;6.57;;;6.03;;
10641;SDS011;5369;49.586;8.646;2022-08-25T06:13:40;7.83;;;6.20;;
10641;SDS011;5369;49.586;8.646;2022-08-25T06:16:06;8.43;;;6.10;;
10641;SDS011;5369;49.586;8.646;2022-08-25T06:18:32;6.93;;;6.23;;
10641;SDS011;5369;49.586;8.646;2022-08-25T06:21:05;6.20;;;5.60;;
10641;SDS011;5369;49.586;8.646;2022-08-25T06:23:32;6.90;;;6.30;;
10641;SDS011;5369;49.586;8.646;2022-08-25T06:25:58;6.47;;;5.87;;
10641;SDS011;5369;49.586;8.646;2022-08-25T06:28:24;7.00;;;5.90;;
10641;SDS011;5369;49.586;8.646;2022-08-25T06:30:56;7.10;;;6.40;;
10641;SDS011;5369;49.586;8.646;2022-08-25T06:33:22;6.50;;;5.90;;
10641;SDS011;5369;49.586;8.646;2022-08-25T06:35:51;7.33;;;6.10;;
10641;SDS011;5369;49.586;8.646;2022-08-25T06:38:18;7.43;;;6.30;;
10641;SDS011;5369;49.586;8.646;2022-08-25T06:40:46;6.30;;;5.80;;
10641;SDS011;5369;49.586;8.646;2022-08-25T06:43:12;6.87;;;6.17;;
10641;SDS011;5369;49.586;8.646;2022-08-25T06:45:38;7.97;;;6.30;;
10641;SDS011;5369;49.586;8.646;2022-08-25T06:48:04;6.63;;;6.03;;
10641;SDS011;5369;49.586;8.646;2022-08-25T06:50:30;6.50;;;5.90;;
10641;SDS011;5369;49.586;8.646;2022-08-25T06:52:57;6.80;;;6.03;;
10641;SDS011;5369;49.586;8.646;2022-08-25T06:55:23;6.43;;;5.80;;
10641;SDS011;5369;49.586;8.646;2022-08-25T06:57:53;5.90;;;5.40;;
10641;SDS011;5369;49.586;8.646;2022-08-25T07:00:20;6.77;;;6.07;;
10641;SDS011;5369;49.586;8.646;2022-08-25T07:02:47;6.83;;;6.10;;
10641;SDS011;5369;49.586;8.646;2022-08-25T07:05:13;6.87;;;6.17;;
10641;SDS011;5369;49.586;8.646;2022-08-25T07:07:39;6.60;;;6.00;;
10641;SDS011;5369;49.586;8.646;2022-08-25T07:10:06;6.57;;;5.97;;
10641;SDS011;5369;49.586;8.646;2022-08-25T07:12:32;6.27;;;5.73;;
10641;SDS011;5369;49.586;8.646;2022-08-25T07:14:58;5.97;;;5.47;;
10641;SDS011;5369;49.586;8.646;2022-08-25T07:17:24;6.17;;;5.57;;
10641;SDS011;5369;49.586;8.646;2022-08-25T07:19:51;7.53;;;6.30;;
10641;SDS011;5369;49.586;8.646;2022-08-25T07:22:17;6.63;;;5.97;;
10641;SDS011;5369;49.586;8.646;2022-08-25T07:24:43;6.30;;;5.80;;
10641;SDS011;5369;49.586;8.646;2022-08-25T07:27:10;5.87;;;5.37;;
10641;SDS011;5369;49.586;8.646;2022-08-25T07:29:36;6.47;;;5.90;;
10641;SDS011;5369;49.586;8.646;2022-08-25T07:32:03;7.20;;;5.77;;
10641;SDS011;5369;49.586;8.646;2022-08-25T07:34:30;6.67;;;5.97;;
10641;SDS011;5369;49.586;8.646;2022-08-25T07:37:15;6.00;;;5.43;;
10641;SDS011;5369;49.586;8.646;2022-08-25T07:39:42;6.40;;;5.80;;
10641;SDS011;5369;49.586;8.646;2022-08-25T07:42:08;6.97;;;5.70;;
10641;SDS011;5369;49.586;8.646;2022-08-25T07:44:34;7.83;;;6.10;;
10641;SDS011;5369;49.586;8.646;2022-08-25T07:47:00;6.60;;;6.00;;
10641;SDS011;5369;49.586;8.646;2022-08-25T07:49:27;6.50;;;6.00;;
10641;SDS011;5369;49.586;8.646;2022-08-25T07:51:53;8.13;;;6.23;;
10641;SDS011;5369;49.586;8.646;2022-08-25T07:54:20;6.33;;;5.73;;
10641;SDS011;5369;49.586;8.646;2022-08-25T07:56:47;6.57;;;5.97;;
10641;SDS011;5369;49.586;8.646;2022-08-25T07:59:13;6.30;;;5.70;;
10641;SDS011;5369;49.586;8.646;2022-08-25T08:01:39;10.23;;;5.90;;
10641;SDS011;5369;49.586;8.646;2022-08-25T08:04:05;6.20;;;5.60;;
10641;SDS011;5369;49.586;8.646;2022-08-25T08:06:31;6.10;;;5.50;;
10641;SDS011;5369;49.586;8.646;2022-08-25T08:08:58;6.00;;;5.50;;
10641;SDS011;5369;49.586;8.646;2022-08-25T08:13:51;7.47;;;5.93;;
10641;SDS011;5369;49.586;8.646;2022-08-25T08:16:18;6.43;;;5.57;;
10641;SDS011;5369;49.586;8.646;2022-08-25T08:18:45;6.50;;;5.90;;
10641;SDS011;5369;49.586;8.646;2022-08-25T08:23:38;6.00;;;5.20;;
10641;SDS011;5369;49.586;8.646;2022-08-25T08:26:04;6.97;;;6.10;;
10641;SDS011;5369;49.586;8.646;2022-08-25T08:28:31;6.10;;;5.60;;
10641;SDS011;5369;49.586;8.646;2022-08-25T08:30:57;5.97;;;5.47;;
10641;SDS011;5369;49.586;8.646;2022-08-25T08:33:23;6.43;;;5.60;;
10641;SDS011;5369;49.586;8.646;2022-08-25T08:36:00;5.77;;;5.27;;
10641;SDS011;5369;49.586;8.646;2022-08-25T08:38:27;7.00;;;5.77;;
10641;SDS011;5369;49.586;8.646;2022-08-25T08:40:57;5.73;;;5.13;;
10641;SDS011;5369;49.586;8.646;2022-08-25T08:43:44;5.83;;;4.80;;
10641;SDS011;5369;49.586;8.646;2022-08-25T08:46:11;5.87;;;5.37;;
10641;SDS011;5369;49.586;8.646;2022-08-25T08:51:34;5.10;;;4.70;;
10641;SDS011;5369;49.586;8.646;2022-08-25T08:54:06;5.90;;;5.40;;
10641;SDS011;5369;49.586;8.646;2022-08-25T08:56:39;5.80;;;5.20;;
10641;SDS011;5369;49.586;8.646;2022-08-25T08:59:08;5.90;;;5.40;;
10641;SDS011;5369;49.586;8.646;2022-08-25T09:06:47;5.30;;;4.90;;
10641;SDS011;5369;49.586;8.646;2022-08-25T09:09:15;6.97;;;5.40;;
10641;SDS011;5369;49.586;8.646;2022-08-25T09:11:50;6.53;;;4.77;;
10641;SDS011;5369;49.586;8.646;2022-08-25T09:14:30;5.60;;;5.03;;
10641;SDS011;5369;49.586;8.646;2022-08-25T09:17:01;5.47;;;4.97;;
10641;SDS011;5369;49.586;8.646;2022-08-25T09:25:14;5.80;;;5.37;;
10641;SDS011;5369;49.586;8.646;2022-08-25T09:30:10;5.70;;;5.20;;
10641;SDS011;5369;49.586;8.646;2022-08-25T09:32:39;5.83;;;5.23;;
10641;SDS011;5369;49.586;8.646;2022-08-25T09:35:07;4.90;;;4.50;;
10641;SDS011;5369;49.586;8.646;2022-08-25T09:37:36;5.47;;;4.97;;
10641;SDS011;5369;49.586;8.646;2022-08-25T09:40:02;5.13;;;4.63;;
10641;SDS011;5369;49.586;8.646;2022-08-25T09:42:45;5.03;;;4.60;;
10641;SDS011;5369;49.586;8.646;2022-08-25T09:45:12;5.30;;;4.70;;
10641;SDS011;5369;49.586;8.646;2022-08-25T09:47:43;5.30;;;4.80;;
10641;SDS011;5369;49.586;8.646;2022-08-25T09:50:14;4.90;;;4.50;;
10641;SDS011;5369;49.586;8.646;2022-08-25T09:52:40;6.83;;;4.87;;
10641;SDS011;5369;49.586;8.646;2022-08-25T09:57:44;5.17;;;4.77;;
10641;SDS011;5369;49.586;8.646;2022-08-25T10:00:13;5.20;;;4.70;;
10641;SDS011;5369;49.586;8.646;2022-08-25T10:02:40;5.30;;;4.80;;
10641;SDS011;5369;49.586;8.646;2022-08-25T10:07:51;5.00;;;4.60;;
10641;SDS011;5369;49.586;8.646;2022-08-25T10:10:21;5.20;;;4.17;;
10641;SDS011;5369;49.586;8.646;2022-08-25T10:12:48;5.33;;;4.83;;
10641;SDS011;5369;49.586;8.646;2022-08-25T10:15:19;7.07;;;4.77;;
10641;SDS011;5369;49.586;8.646;2022-08-25T10:17:46;4.90;;;4.50;;
10641;SDS011;5369;49.586;8.646;2022-08-25T10:20:21;4.97;;;4.57;;
10641;SDS011;5369;49.586;8.646;2022-08-25T10:22:48;5.57;;;4.50;;
10641;SDS011;5369;49.586;8.646;2022-08-25T10:25:26;4.90;;;4.50;;
10641;SDS011;5369;49.586;8.646;2022-08-25T10:28:16;5.83;;;4.67;;
10641;SDS011;5369;49.586;8.646;2022-08-25T10:30:46;5.20;;;4.70;;
10641;SDS011;5369;49.586;8.646;2022-08-25T10:38:37;4.60;;;4.20;;
10641;SDS011;5369;49.586;8.646;2022-08-25T10:41:11;4.23;;;3.93;;
10641;SDS011;5369;49.586;8.646;2022-08-25T10:51:33;5.33;;;4.30;;
10641;SDS011;5369;49.586;8.646;2022-08-25T10:56:34;4.37;;;4.07;;
10641;SDS011;5369;49.586;8.646;2022-08-25T11:04:13;5.13;;;4.67;;
10641;SDS011;5369;49.586;8.646;2022-08-25T11:06:42;5.13;;;4.27;;
10641;SDS011;5369;49.586;8.646;2022-08-25T11:09:12;4.50;;;4.20;;
10641;SDS011;5369;49.586;8.646;2022-08-25T11:11:52;4.60;;;4.20;;
10641;SDS011;5369;49.586;8.646;2022-08-25T11:14:22;4.23;;;3.73;;
10641;SDS011;5369;49.586;8.646;2022-08-25T11:16:54;4.10;;;3.80;;
10641;SDS011;5369;49.586;8.646;2022-08-25T11:19:31;4.70;;;4.30;;
10641;SDS011;5369;49.586;8.646;2022-08-25T11:27:08;4.33;;;3.93;;
10641;SDS011;5369;49.586;8.646;2022-08-25T11:29:36;4.97;;;3.83;;
10641;SDS011;5369;49.586;8.646;2022-08-25T11:32:03;4.50;;;4.10;;
10641;SDS011;5369;49.586;8.646;2022-08-25T11:34:30;6.30;;;4.00;;
10641;SDS011;5369;49.586;8.646;2022-08-25T11:36:59;4.20;;;3.90;;
10641;SDS011;5369;49.586;8.646;2022-08-25T11:55:05;4.80;;;4.40;;
10641;SDS011;5369;49.586;8.646;2022-08-25T11:57:35;4.77;;;4.33;;
10641;SDS011;5369;49.586;8.646;2022-08-25T12:00:12;4.10;;;3.70;;
10641;SDS011;5369;49.586;8.646;2022-08-25T12:02:43;6.40;;;4.00;;
10641;SDS011;5369;49.586;8.646;2022-08-25T12:11:40;3.40;;;3.10;;
10641;SDS011;5369;49.586;8.646;2022-08-25T12:16:30;4.87;;;3.87;;
10641;SDS011;5369;49.586;8.646;2022-08-25T12:18:53;3.63;;;3.33;;
10641;SDS011;5369;49.586;8.646;2022-08-25T12:21:39;3.83;;;3.53;;
10641;SDS011;5369;49.586;8.646;2022-08-25T12:24:09;4.10;;;3.47;;
10641;SDS011;5369;49.586;8.646;2022-08-25T12:29:10;4.27;;;3.73;;
10641;SDS011;5369;49.586;8.646;2022-08-25T12:34:20;3.63;;;3.37;;
10641;SDS011;5369;49.586;8.646;2022-08-25T12:36:57;4.10;;;3.80;;
10641;SDS011;5369;49.586;8.646;2022-08-25T12:39:28;4.30;;;3.90;;
10641;SDS011;5369;49.586;8.646;2022-08-25T12:41:57;4.33;;;3.93;;
10641;SDS011;5369;49.586;8.646;2022-08-25T12:47:32;4.50;;;3.63;;
10641;SDS011;5369;49.586;8.646;2022-08-25T12:49:52;4.07;;;3.67;;
10641;SDS011;5369;49.586;8.646;2022-08-25T12:52:22;4.10;;;3.80;;
10641;SDS011;5369;49.586;8.646;2022-08-25T13:00:23;5.43;;;3.43;;
10641;SDS011;5369;49.586;8.646;2022-08-25T13:13:07;4.00;;;3.37;;
10641;SDS011;5369;49.586;8.646;2022-08-25T13:18:14;3.50;;;3.20;;
10641;SDS011;5369;49.586;8.646;2022-08-25T13:20:42;3.20;;;3.00;;
10641;SDS011;5369;49.586;8.646;2022-08-25T13:23:08;3.60;;;3.37;;
10641;SDS011;5369;49.586;8.646;2022-08-25T13:25:34;3.57;;;3.27;;
10641;SDS011;5369;49.586;8.646;2022-08-25T13:28:03;3.50;;;3.20;;
10641;SDS011;5369;49.586;8.646;2022-08-25T13:30:32;4.03;;;3.60;;
10641;SDS011;5369;49.586;8.646;2022-08-25T13:32:59;3.30;;;3.10;;
10641;SDS011;5369;49.586;8.646;2022-08-25T13:35:26;3.00;;;2.80;;
10641;SDS011;5369;49.586;8.646;2022-08-25T13:37:53;3.27;;;3.03;;
10641;SDS011;5369;49.586;8.646;2022-08-25T13:42:47;3.37;;;2.90;;
10641;SDS011;5369;49.586;8.646;2022-08-25T13:45:21;3.10;;;2.90;;
10641;SDS011;5369;49.586;8.646;2022-08-25T13:47:47;3.27;;;2.97;;
10641;SDS011;5369;49.586;8.646;2022-08-25T13:52:40;2.90;;;2.70;;
10641;SDS011;5369;49.586;8.646;2022-08-25T13:55:06;3.33;;;3.03;;
10641;SDS011;5369;49.586;8.646;2022-08-25T13:57:32;3.50;;;3.20;;
10641;SDS011;5369;49.586;8.646;2022-08-25T13:59:59;3.33;;;3.03;;
10641;SDS011;5369;49.586;8.646;2022-08-25T14:02:46;3.25;;;3.03;;
10641;SDS011;5369;49.586;8.646;2022-08-25T14:05:13;3.60;;;3.30;;
10641;SDS011;5369;49.586;8.646;2022-08-25T14:07:51;3.80;;;2.78;;
10641;SDS011;5369;49.586;8.646;2022-08-25T14:13:07;3.67;;;3.35;;
10641;SDS011;5369;49.586;8.646;2022-08-25T14:15:33;3.53;;;3.25;;
10641;SDS011;5369;49.586;8.646;2022-08-25T14:18:05;3.05;;;2.85;;
10641;SDS011;5369;49.586;8.646;2022-08-25T14:20:32;4.32;;;3.00;;
10641;SDS011;5369;49.586;8.646;2022-08-25T14:23:00;3.30;;;3.00;;
10641;SDS011;5369;49.586;8.646;2022-08-25T14:25:28;3.45;;;3.20;;
10641;SDS011;5369;49.586;8.646;2022-08-25T14:28:02;2.90;;;2.70;;
10641;SDS011;5369;49.586;8.646;2022-08-25T14:30:29;3.03;;;2.83;;
10641;SDS011;5369;49.586;8.646;2022-08-25T14:32:56;3.00;;;2.73;;
10641;SDS011;5369;49.586;8.646;2022-08-25T14:35:23;3.00;;;2.80;;
10641;SDS011;5369;49.586;8.646;2022-08-25T14:37:49;3.53;;;3.23;;
10641;SDS011;5369;49.586;8.646;2022-08-25T14:40:15;3.50;;;3.20;;
10641;SDS011;5369;49.586;8.646;2022-08-25T14:42:47;3.83;;;3.10;;
10641;SDS011;5369;49.586;8.646;2022-08-25T14:45:17;4.00;;;3.70;;
10641;SDS011;5369;49.586;8.646;2022-08-25T14:47:43;3.80;;;3.50;;
10641;SDS011;5369;49.586;8.646;2022-08-25T14:50:11;4.00;;;3.30;;
10641;SDS011;5369;49.586;8.646;2022-08-25T14:52:37;4.10;;;3.70;;
10641;SDS011;5369;49.586;8.646;2022-08-25T14:55:05;3.40;;;3.10;;
10641;SDS011;5369;49.586;8.646;2022-08-25T14:57:31;3.80;;;3.50;;
10641;SDS011;5369;49.586;8.646;2022-08-25T14:59:58;3.47;;;3.17;;
10641;SDS011;5369;49.586;8.646;2022-08-25T15:02:24;3.63;;;3.23;;
10641;SDS011;5369;49.586;8.646;2022-08-25T15:05:00;3.37;;;3.07;;
10641;SDS011;5369;49.586;8.646;2022-08-25T15:07:30;4.00;;;3.30;;
10641;SDS011;5369;49.586;8.646;2022-08-25T15:10:15;4.17;;;3.43;;
10641;SDS011;5369;49.586;8.646;2022-08-25T15:12:41;4.13;;;3.10;;
10641;SDS011;5369;49.586;8.646;2022-08-25T15:15:07;5.13;;;3.20;;
10641;SDS011;5369;49.586;8.646;2022-08-25T15:17:34;3.20;;;3.00;;
10641;SDS011;5369;49.586;8.646;2022-08-25T15:20:00;4.50;;;3.20;;
10641;SDS011;5369;49.586;8.646;2022-08-25T15:22:28;3.60;;;3.30;;
10641;SDS011;5369;49.586;8.646;2022-08-25T15:24:54;5.17;;;3.60;;
10641;SDS011;5369;49.586;8.646;2022-08-25T15:27:20;3.50;;;3.20;;
10641;SDS011;5369;49.586;8.646;2022-08-25T15:29:46;3.73;;;3.30;;
10641;SDS011;5369;49.586;8.646;2022-08-25T15:32:13;4.03;;;3.73;;
10641;SDS011;5369;49.586;8.646;2022-08-25T15:34:40;3.70;;;3.40;;
10641;SDS011;5369;49.586;8.646;2022-08-25T15:37:07;3.57;;;3.27;;
10641;SDS011;5369;49.586;8.646;2022-08-25T15:39:34;4.37;;;3.30;;
10641;SDS011;5369;49.586;8.646;2022-08-25T15:42:00;3.17;;;2.97;;
10641;SDS011;5369;49.586;8.646;2022-08-25T15:44:27;3.70;;;3.37;;
10641;SDS011;5369;49.586;8.646;2022-08-25T15:46:53;3.87;;;3.10;;
10641;SDS011;5369;49.586;8.646;2022-08-25T15:49:19;3.97;;;3.30;;
10641;SDS011;5369;49.586;8.646;2022-08-25T15:51:45;6.97;;;3.13;;
10641;SDS011;5369;49.586;8.646;2022-08-25T15:54:12;3.27;;;2.90;;
10641;SDS011;5369;49.586;8.646;2022-08-25T15:56:38;3.07;;;2.87;;
10641;SDS011;5369;49.586;8.646;2022-08-25T15:59:05;3.00;;;2.80;;
10641;SDS011;5369;49.586;8.646;2022-08-25T16:01:31;3.10;;;2.80;;
10641;SDS011;5369;49.586;8.646;2022-08-25T16:03:57;3.20;;;2.90;;
10641;SDS011;5369;49.586;8.646;2022-08-25T16:06:24;3.00;;;2.80;;
10641;SDS011;5369;49.586;8.646;2022-08-25T16:08:51;3.70;;;3.00;;
10641;SDS011;5369;49.586;8.646;2022-08-25T16:11:18;3.33;;;3.03;;
10641;SDS011;5369;49.586;8.646;2022-08-25T16:13:48;3.40;;;3.10;;
10641;SDS011;5369;49.586;8.646;2022-08-25T16:16:14;6.50;;;3.27;;
10641;SDS011;5369;49.586;8.646;2022-08-25T16:18:41;3.80;;;3.40;;
10641;SDS011;5369;49.586;8.646;2022-08-25T16:21:08;3.20;;;3.00;;
10641;SDS011;5369;49.586;8.646;2022-08-25T16:23:35;4.77;;;3.00;;
10641;SDS011;5369;49.586;8.646;2022-08-25T16:26:03;3.40;;;3.10;;
10641;SDS011;5369;49.586;8.646;2022-08-25T16:28:29;5.10;;;3.70;;
10641;SDS011;5369;49.586;8.646;2022-08-25T16:30:55;5.00;;;3.23;;
10641;SDS011;5369;49.586;8.646;2022-08-25T16:33:21;4.67;;;3.33;;
10641;SDS011;5369;49.586;8.646;2022-08-25T16:35:48;3.57;;;3.27;;
10641;SDS011;5369;49.586;8.646;2022-08-25T16:38:14;3.70;;;3.40;;
10641;SDS011;5369;49.586;8.646;2022-08-25T16:40:41;4.60;;;3.30;;
10641;SDS011;5369;49.586;8.646;2022-08-25T16:43:07;3.50;;;3.20;;
10641;SDS011;5369;49.586;8.646;2022-08-25T16:45:33;4.03;;;3.30;;
10641;SDS011;5369;49.586;8.646;2022-08-25T16:48:00;5.97;;;4.00;;
10641;SDS011;5369;49.586;8.646;2022-08-25T16:50:27;4.10;;;3.80;;
10641;SDS011;5369;49.586;8.646;2022-08-25T16:52:55;3.60;;;3.30;;
10641;SDS011;5369;49.586;8.646;2022-08-25T16:55:40;5.03;;;3.57;;
10641;SDS011;5369;49.586;8.646;2022-08-25T16:58:07;3.93;;;3.53;;
10641;SDS011;5369;49.586;8.646;2022-08-25T17:00:35;3.93;;;3.53;;